sensor_id;sensor_type;location;lat;lon;timestamp;P1;durP1;ratioP1;P2;durP2;ratioP2
52642;SDS011;38531;53.296;6.614;2023-01-28T00:00:51;225.47;;;136.30;;
52642;SDS011;38531;53.296;6.614;2023-01-28T00:03:17;225.87;;;136.43;;
52642;SDS011;38531;53.296;6.614;2023-01-28T00:05:43;229.23;;;137.47;;
52642;SDS011;38531;53.296;6.614;2023-01-28T00:08:09;231.37;;;138.37;;
52642;SDS011;38531;53.296;6.614;2023-01-28T00:10:36;228.10;;;137.47;;
52642;SDS011;38531;53.296;6.614;2023-01-28T00:13:04;224.80;;;136.40;;
52642;SDS011;38531;53.296;6.614;2023-01-28T00:15:30;225.47;;;136.63;;
52642;SDS011;38531;53.296;6.614;2023-01-28T00:17:56;223.10;;;135.33;;
52642;SDS011;38531;53.296;6.614;2023-01-28T00:20:21;219.83;;;135.13;;
52642;SDS011;38531;53.296;6.614;2023-01-28T00:22:47;217.80;;;133.70;;
52642;SDS011;38531;53.296;6.614;2023-01-28T00:25:14;223.87;;;135.43;;
52642;SDS011;38531;53.296;6.614;2023-01-28T00:27:40;229.87;;;137.23;;
52642;SDS011;38531;53.296;6.614;2023-01-28T00:30:06;229.73;;;138.10;;
52642;SDS011;38531;53.296;6.614;2023-01-28T00:32:32;221.13;;;135.07;;
52642;SDS011;38531;53.296;6.614;2023-01-28T00:34:58;222.80;;;135.53;;
52642;SDS011;38531;53.296;6.614;2023-01-28T00:37:23;229.17;;;137.07;;
52642;SDS011;38531;53.296;6.614;2023-01-28T00:40:10;230.00;;;138.45;;
52642;SDS011;38531;53.296;6.614;2023-01-28T00:42:36;230.27;;;138.23;;
52642;SDS011;38531;53.296;6.614;2023-01-28T00:45:01;228.30;;;138.57;;
52642;SDS011;38531;53.296;6.614;2023-01-28T00:47:27;226.20;;;136.97;;
52642;SDS011;38531;53.296;6.614;2023-01-28T00:49:53;227.53;;;137.30;;
52642;SDS011;38531;53.296;6.614;2023-01-28T00:52:19;227.20;;;137.17;;
52642;SDS011;38531;53.296;6.614;2023-01-28T00:54:44;229.23;;;137.47;;
52642;SDS011;38531;53.296;6.614;2023-01-28T00:57:10;230.57;;;138.13;;
52642;SDS011;38531;53.296;6.614;2023-01-28T00:59:36;227.87;;;137.03;;
52642;SDS011;38531;53.296;6.614;2023-01-28T01:02:02;228.87;;;137.60;;
52642;SDS011;38531;53.296;6.614;2023-01-28T01:04:36;221.47;;;135.77;;
52642;SDS011;38531;53.296;6.614;2023-01-28T01:07:02;209.80;;;132.63;;
52642;SDS011;38531;53.296;6.614;2023-01-28T01:09:27;216.70;;;134.73;;
52642;SDS011;38531;53.296;6.614;2023-01-28T01:11:53;216.87;;;133.97;;
52642;SDS011;38531;53.296;6.614;2023-01-28T01:14:19;225.27;;;136.37;;
52642;SDS011;38531;53.296;6.614;2023-01-28T01:16:44;207.63;;;133.10;;
52642;SDS011;38531;53.296;6.614;2023-01-28T01:19:10;214.53;;;133.80;;
52642;SDS011;38531;53.296;6.614;2023-01-28T01:21:36;229.83;;;137.90;;
52642;SDS011;38531;53.296;6.614;2023-01-28T01:24:02;227.77;;;136.47;;
52642;SDS011;38531;53.296;6.614;2023-01-28T01:26:27;233.23;;;138.77;;
52642;SDS011;38531;53.296;6.614;2023-01-28T01:28:53;233.87;;;138.27;;
52642;SDS011;38531;53.296;6.614;2023-01-28T01:31:20;230.97;;;137.83;;
52642;SDS011;38531;53.296;6.614;2023-01-28T01:33:47;228.30;;;137.43;;
52642;SDS011;38531;53.296;6.614;2023-01-28T01:36:14;237.83;;;139.30;;
52642;SDS011;38531;53.296;6.614;2023-01-28T01:38:43;248.63;;;141.07;;
52642;SDS011;38531;53.296;6.614;2023-01-28T01:41:12;245.27;;;140.00;;
52642;SDS011;38531;53.296;6.614;2023-01-28T01:43:58;227.47;;;135.97;;
52642;SDS011;38531;53.296;6.614;2023-01-28T01:46:44;216.87;;;133.77;;
52642;SDS011;38531;53.296;6.614;2023-01-28T01:49:18;225.20;;;135.70;;
52642;SDS011;38531;53.296;6.614;2023-01-28T01:51:53;221.63;;;136.30;;
52642;SDS011;38531;53.296;6.614;2023-01-28T01:54:30;217.63;;;133.63;;
52642;SDS011;38531;53.296;6.614;2023-01-28T01:56:57;217.53;;;134.27;;
52642;SDS011;38531;53.296;6.614;2023-01-28T01:59:27;217.57;;;134.47;;
52642;SDS011;38531;53.296;6.614;2023-01-28T02:01:55;218.50;;;133.83;;
52642;SDS011;38531;53.296;6.614;2023-01-28T02:04:26;218.50;;;134.77;;
52642;SDS011;38531;53.296;6.614;2023-01-28T02:06:56;217.43;;;133.80;;
52642;SDS011;38531;53.296;6.614;2023-01-28T02:09:25;215.10;;;133.53;;
52642;SDS011;38531;53.296;6.614;2023-01-28T02:12:16;199.23;;;130.50;;
52642;SDS011;38531;53.296;6.614;2023-01-28T02:15:07;204.70;;;131.80;;
52642;SDS011;38531;53.296;6.614;2023-01-28T02:17:32;205.70;;;131.97;;
52642;SDS011;38531;53.296;6.614;2023-01-28T02:20:00;201.87;;;130.17;;
52642;SDS011;38531;53.296;6.614;2023-01-28T02:25:14;196.87;;;129.17;;
52642;SDS011;38531;53.296;6.614;2023-01-28T02:30:57;207.70;;;132.98;;
52642;SDS011;38531;53.296;6.614;2023-01-28T02:38:45;175.23;;;122.00;;
52642;SDS011;38531;53.296;6.614;2023-01-28T02:41:14;201.87;;;129.73;;
52642;SDS011;38531;53.296;6.614;2023-01-28T02:43:49;194.50;;;128.63;;
52642;SDS011;38531;53.296;6.614;2023-01-28T02:49:19;211.97;;;133.67;;
52642;SDS011;38531;53.296;6.614;2023-01-28T03:00:18;200.00;;;128.93;;
52642;SDS011;38531;53.296;6.614;2023-01-28T03:02:57;190.60;;;127.43;;
52642;SDS011;38531;53.296;6.614;2023-01-28T03:05:38;203.50;;;130.83;;
52642;SDS011;38531;53.296;6.614;2023-01-28T03:08:22;202.80;;;131.17;;
52642;SDS011;38531;53.296;6.614;2023-01-28T03:11:07;204.82;;;132.05;;
52642;SDS011;38531;53.296;6.614;2023-01-28T03:13:52;195.50;;;128.47;;
52642;SDS011;38531;53.296;6.614;2023-01-28T03:16:36;195.23;;;128.37;;
52642;SDS011;38531;53.296;6.614;2023-01-28T03:19:21;195.47;;;128.70;;
52642;SDS011;38531;53.296;6.614;2023-01-28T03:22:06;205.00;;;130.35;;
52642;SDS011;38531;53.296;6.614;2023-01-28T03:24:52;198.13;;;128.93;;
52642;SDS011;38531;53.296;6.614;2023-01-28T03:30:30;193.02;;;128.40;;
52642;SDS011;38531;53.296;6.614;2023-01-28T03:33:37;193.17;;;128.30;;
52642;SDS011;38531;53.296;6.614;2023-01-28T03:36:22;165.73;;;118.37;;
52642;SDS011;38531;53.296;6.614;2023-01-28T03:39:07;191.37;;;128.07;;
52642;SDS011;38531;53.296;6.614;2023-01-28T03:41:33;193.87;;;128.63;;
52642;SDS011;38531;53.296;6.614;2023-01-28T03:43:58;183.20;;;124.80;;
52642;SDS011;38531;53.296;6.614;2023-01-28T03:46:43;182.47;;;124.30;;
52642;SDS011;38531;53.296;6.614;2023-01-28T03:49:08;181.87;;;124.00;;
52642;SDS011;38531;53.296;6.614;2023-01-28T03:51:34;178.07;;;124.17;;
52642;SDS011;38531;53.296;6.614;2023-01-28T03:54:00;188.33;;;126.80;;
52642;SDS011;38531;53.296;6.614;2023-01-28T03:56:26;192.83;;;127.63;;
52642;SDS011;38531;53.296;6.614;2023-01-28T03:58:56;193.27;;;127.57;;
52642;SDS011;38531;53.296;6.614;2023-01-28T04:01:22;189.57;;;127.27;;
52642;SDS011;38531;53.296;6.614;2023-01-28T04:03:48;188.93;;;127.00;;
52642;SDS011;38531;53.296;6.614;2023-01-28T04:06:13;193.70;;;127.47;;
52642;SDS011;38531;53.296;6.614;2023-01-28T04:08:39;193.07;;;126.20;;
52642;SDS011;38531;53.296;6.614;2023-01-28T04:11:10;193.07;;;127.10;;
52642;SDS011;38531;53.296;6.614;2023-01-28T04:13:43;193.87;;;126.40;;
52642;SDS011;38531;53.296;6.614;2023-01-28T04:16:10;193.97;;;126.43;;
52642;SDS011;38531;53.296;6.614;2023-01-28T04:18:37;193.63;;;127.47;;
52642;SDS011;38531;53.296;6.614;2023-01-28T04:21:03;198.00;;;128.53;;
52642;SDS011;38531;53.296;6.614;2023-01-28T04:23:29;198.10;;;128.50;;
52642;SDS011;38531;53.296;6.614;2023-01-28T04:25:55;202.97;;;129.33;;
52642;SDS011;38531;53.296;6.614;2023-01-28T04:28:21;207.57;;;130.30;;
52642;SDS011;38531;53.296;6.614;2023-01-28T04:30:47;210.70;;;130.43;;
52642;SDS011;38531;53.296;6.614;2023-01-28T04:33:12;199.90;;;128.07;;
52642;SDS011;38531;53.296;6.614;2023-01-28T04:35:39;202.13;;;129.83;;
52642;SDS011;38531;53.296;6.614;2023-01-28T04:38:04;203.53;;;130.23;;
52642;SDS011;38531;53.296;6.614;2023-01-28T04:40:30;198.03;;;128.47;;
52642;SDS011;38531;53.296;6.614;2023-01-28T04:42:56;198.57;;;128.03;;
52642;SDS011;38531;53.296;6.614;2023-01-28T04:45:22;197.47;;;126.50;;
52642;SDS011;38531;53.296;6.614;2023-01-28T04:47:48;203.27;;;129.17;;
52642;SDS011;38531;53.296;6.614;2023-01-28T04:50:14;204.27;;;129.80;;
52642;SDS011;38531;53.296;6.614;2023-01-28T04:52:40;193.37;;;126.93;;
52642;SDS011;38531;53.296;6.614;2023-01-28T04:55:06;196.33;;;128.03;;
52642;SDS011;38531;53.296;6.614;2023-01-28T04:57:33;195.70;;;127.00;;
52642;SDS011;38531;53.296;6.614;2023-01-28T04:59:59;196.73;;;127.77;;
52642;SDS011;38531;53.296;6.614;2023-01-28T05:02:24;194.33;;;127.00;;
52642;SDS011;38531;53.296;6.614;2023-01-28T05:04:50;193.27;;;126.27;;
52642;SDS011;38531;53.296;6.614;2023-01-28T05:07:16;197.87;;;128.30;;
52642;SDS011;38531;53.296;6.614;2023-01-28T05:09:41;197.57;;;127.90;;
52642;SDS011;38531;53.296;6.614;2023-01-28T05:12:07;196.77;;;128.13;;
52642;SDS011;38531;53.296;6.614;2023-01-28T05:14:33;195.97;;;127.60;;
52642;SDS011;38531;53.296;6.614;2023-01-28T05:16:58;205.43;;;130.13;;
52642;SDS011;38531;53.296;6.614;2023-01-28T05:19:24;214.30;;;131.10;;
52642;SDS011;38531;53.296;6.614;2023-01-28T05:21:50;219.37;;;132.73;;
52642;SDS011;38531;53.296;6.614;2023-01-28T05:24:15;200.57;;;129.07;;
52642;SDS011;38531;53.296;6.614;2023-01-28T05:26:41;203.23;;;129.97;;
52642;SDS011;38531;53.296;6.614;2023-01-28T05:29:07;212.23;;;131.17;;
52642;SDS011;38531;53.296;6.614;2023-01-28T05:31:33;211.63;;;131.97;;
52642;SDS011;38531;53.296;6.614;2023-01-28T05:33:59;203.83;;;130.23;;
52642;SDS011;38531;53.296;6.614;2023-01-28T05:36:25;218.70;;;133.47;;
52642;SDS011;38531;53.296;6.614;2023-01-28T05:38:51;206.87;;;131.10;;
52642;SDS011;38531;53.296;6.614;2023-01-28T05:41:17;212.67;;;131.17;;
52642;SDS011;38531;53.296;6.614;2023-01-28T05:43:42;196.97;;;128.73;;
52642;SDS011;38531;53.296;6.614;2023-01-28T05:46:08;202.10;;;129.37;;
52642;SDS011;38531;53.296;6.614;2023-01-28T05:48:34;203.90;;;130.03;;
52642;SDS011;38531;53.296;6.614;2023-01-28T05:50:59;207.60;;;130.20;;
52642;SDS011;38531;53.296;6.614;2023-01-28T05:53:25;211.30;;;131.53;;
52642;SDS011;38531;53.296;6.614;2023-01-28T05:55:52;217.77;;;133.37;;
52642;SDS011;38531;53.296;6.614;2023-01-28T05:58:18;220.90;;;134.03;;
52642;SDS011;38531;53.296;6.614;2023-01-28T06:00:44;221.17;;;134.50;;
52642;SDS011;38531;53.296;6.614;2023-01-28T06:03:10;216.87;;;132.50;;
52642;SDS011;38531;53.296;6.614;2023-01-28T06:05:35;225.13;;;134.37;;
52642;SDS011;38531;53.296;6.614;2023-01-28T06:08:01;212.17;;;132.13;;
52642;SDS011;38531;53.296;6.614;2023-01-28T06:10:27;209.17;;;130.40;;
52642;SDS011;38531;53.296;6.614;2023-01-28T06:12:54;224.73;;;135.33;;
52642;SDS011;38531;53.296;6.614;2023-01-28T06:15:19;226.17;;;135.53;;
52642;SDS011;38531;53.296;6.614;2023-01-28T06:17:45;227.60;;;135.53;;
52642;SDS011;38531;53.296;6.614;2023-01-28T06:20:11;231.90;;;136.93;;
52642;SDS011;38531;53.296;6.614;2023-01-28T06:22:37;235.33;;;137.53;;
52642;SDS011;38531;53.296;6.614;2023-01-28T06:25:02;237.53;;;137.80;;
52642;SDS011;38531;53.296;6.614;2023-01-28T06:27:28;234.27;;;137.07;;
52642;SDS011;38531;53.296;6.614;2023-01-28T06:29:54;226.43;;;135.57;;
52642;SDS011;38531;53.296;6.614;2023-01-28T06:32:20;221.23;;;134.30;;
52642;SDS011;38531;53.296;6.614;2023-01-28T06:34:45;217.27;;;132.93;;
52642;SDS011;38531;53.296;6.614;2023-01-28T06:37:14;224.27;;;134.10;;
52642;SDS011;38531;53.296;6.614;2023-01-28T06:39:40;55.73;;;33.97;;
52642;SDS011;38531;53.296;6.614;2023-01-28T06:42:05;5.55;;;2.78;;
52642;SDS011;38531;53.296;6.614;2023-01-28T06:44:31;3.60;;;2.38;;
52642;SDS011;38531;53.296;6.614;2023-01-28T06:46:57;3.92;;;2.80;;
52642;SDS011;38531;53.296;6.614;2023-01-28T06:49:23;4.03;;;2.53;;
52642;SDS011;38531;53.296;6.614;2023-01-28T06:51:48;3.53;;;2.30;;
52642;SDS011;38531;53.296;6.614;2023-01-28T06:54:14;4.45;;;2.50;;
52642;SDS011;38531;53.296;6.614;2023-01-28T06:56:40;3.30;;;2.15;;
52642;SDS011;38531;53.296;6.614;2023-01-28T06:59:06;3.55;;;2.08;;
52642;SDS011;38531;53.296;6.614;2023-01-28T07:01:32;3.95;;;2.40;;
52642;SDS011;38531;53.296;6.614;2023-01-28T07:03:57;3.53;;;2.30;;
52642;SDS011;38531;53.296;6.614;2023-01-28T07:06:23;3.58;;;2.17;;
52642;SDS011;38531;53.296;6.614;2023-01-28T07:08:49;4.95;;;2.47;;
52642;SDS011;38531;53.296;6.614;2023-01-28T07:11:15;3.17;;;2.22;;
52642;SDS011;38531;53.296;6.614;2023-01-28T07:13:41;4.65;;;2.53;;
52642;SDS011;38531;53.296;6.614;2023-01-28T07:16:07;4.28;;;2.90;;
52642;SDS011;38531;53.296;6.614;2023-01-28T07:18:33;4.63;;;3.17;;
52642;SDS011;38531;53.296;6.614;2023-01-28T07:20:59;4.25;;;2.70;;
52642;SDS011;38531;53.296;6.614;2023-01-28T07:23:25;5.47;;;3.20;;
52642;SDS011;38531;53.296;6.614;2023-01-28T07:25:51;3.88;;;2.30;;
52642;SDS011;38531;53.296;6.614;2023-01-28T07:28:16;3.45;;;2.50;;
52642;SDS011;38531;53.296;6.614;2023-01-28T07:30:49;3.92;;;2.63;;
52642;SDS011;38531;53.296;6.614;2023-01-28T07:33:15;4.75;;;2.42;;
52642;SDS011;38531;53.296;6.614;2023-01-28T07:35:41;3.33;;;2.20;;
52642;SDS011;38531;53.296;6.614;2023-01-28T07:38:08;3.13;;;2.33;;
52642;SDS011;38531;53.296;6.614;2023-01-28T07:40:33;4.65;;;2.97;;
52642;SDS011;38531;53.296;6.614;2023-01-28T07:42:59;3.50;;;2.22;;
52642;SDS011;38531;53.296;6.614;2023-01-28T07:45:25;3.42;;;2.33;;
52642;SDS011;38531;53.296;6.614;2023-01-28T07:47:55;3.42;;;2.20;;
52642;SDS011;38531;53.296;6.614;2023-01-28T07:50:22;3.00;;;2.40;;
52642;SDS011;38531;53.296;6.614;2023-01-28T07:52:48;3.28;;;2.08;;
52642;SDS011;38531;53.296;6.614;2023-01-28T07:55:14;3.53;;;2.30;;
52642;SDS011;38531;53.296;6.614;2023-01-28T07:57:50;4.70;;;2.42;;
52642;SDS011;38531;53.296;6.614;2023-01-28T08:00:18;4.00;;;2.30;;
52642;SDS011;38531;53.296;6.614;2023-01-28T08:02:44;3.85;;;2.17;;
52642;SDS011;38531;53.296;6.614;2023-01-28T08:05:13;4.85;;;2.38;;
52642;SDS011;38531;53.296;6.614;2023-01-28T08:07:40;3.58;;;2.30;;
52642;SDS011;38531;53.296;6.614;2023-01-28T08:10:05;4.00;;;2.33;;
52642;SDS011;38531;53.296;6.614;2023-01-28T08:12:31;4.45;;;2.03;;
52642;SDS011;38531;53.296;6.614;2023-01-28T08:14:57;3.90;;;2.20;;
52642;SDS011;38531;53.296;6.614;2023-01-28T08:17:23;4.78;;;2.15;;
52642;SDS011;38531;53.296;6.614;2023-01-28T08:19:48;3.22;;;1.67;;
52642;SDS011;38531;53.296;6.614;2023-01-28T08:22:14;2.92;;;1.90;;
52642;SDS011;38531;53.296;6.614;2023-01-28T08:24:40;3.35;;;1.67;;
52642;SDS011;38531;53.296;6.614;2023-01-28T08:27:05;2.67;;;1.52;;
52642;SDS011;38531;53.296;6.614;2023-01-28T08:29:31;5.75;;;1.90;;
52642;SDS011;38531;53.296;6.614;2023-01-28T08:31:57;2.92;;;1.77;;
52642;SDS011;38531;53.296;6.614;2023-01-28T08:34:22;2.88;;;1.75;;
52642;SDS011;38531;53.296;6.614;2023-01-28T08:36:48;2.58;;;1.58;;
52642;SDS011;38531;53.296;6.614;2023-01-28T08:39:14;3.17;;;1.70;;
52642;SDS011;38531;53.296;6.614;2023-01-28T08:41:39;5.07;;;2.15;;
52642;SDS011;38531;53.296;6.614;2023-01-28T08:44:05;2.97;;;2.00;;
52642;SDS011;38531;53.296;6.614;2023-01-28T08:46:31;4.78;;;2.17;;
52642;SDS011;38531;53.296;6.614;2023-01-28T08:48:56;3.17;;;1.85;;
52642;SDS011;38531;53.296;6.614;2023-01-28T08:51:22;2.67;;;1.73;;
52642;SDS011;38531;53.296;6.614;2023-01-28T08:53:47;3.65;;;2.00;;
52642;SDS011;38531;53.296;6.614;2023-01-28T08:56:13;4.15;;;1.83;;
52642;SDS011;38531;53.296;6.614;2023-01-28T08:58:39;523.77;;;413.77;;
52642;SDS011;38531;53.296;6.614;2023-01-28T09:01:05;2.55;;;1.70;;
52642;SDS011;38531;53.296;6.614;2023-01-28T09:03:31;4.13;;;2.15;;
52642;SDS011;38531;53.296;6.614;2023-01-28T09:06:00;646.47;;;358.83;;
52642;SDS011;38531;53.296;6.614;2023-01-28T09:08:27;512.10;;;457.43;;
52642;SDS011;38531;53.296;6.614;2023-01-28T09:10:53;519.20;;;434.03;;
52642;SDS011;38531;53.296;6.614;2023-01-28T09:13:22;666.57;;;376.40;;
52642;SDS011;38531;53.296;6.614;2023-01-28T09:15:49;582.90;;;381.87;;
52642;SDS011;38531;53.296;6.614;2023-01-28T09:18:15;517.03;;;160.00;;
52642;SDS011;38531;53.296;6.614;2023-01-28T09:20:41;449.43;;;158.20;;
52642;SDS011;38531;53.296;6.614;2023-01-28T09:23:07;732.23;;;426.07;;
52642;SDS011;38531;53.296;6.614;2023-01-28T09:25:33;806.23;;;367.57;;
52642;SDS011;38531;53.296;6.614;2023-01-28T09:28:02;807.27;;;462.53;;
52642;SDS011;38531;53.296;6.614;2023-01-28T09:30:29;4.70;;;2.78;;
52642;SDS011;38531;53.296;6.614;2023-01-28T09:32:55;3.58;;;2.17;;
52642;SDS011;38531;53.296;6.614;2023-01-28T09:35:25;3.38;;;2.25;;
52642;SDS011;38531;53.296;6.614;2023-01-28T09:37:50;833.77;;;385.03;;
52642;SDS011;38531;53.296;6.614;2023-01-28T09:40:20;840.10;;;482.97;;
52642;SDS011;38531;53.296;6.614;2023-01-28T09:45:56;3.97;;;2.80;;
52642;SDS011;38531;53.296;6.614;2023-01-28T09:48:43;4.28;;;2.72;;
52642;SDS011;38531;53.296;6.614;2023-01-28T09:54:05;4.18;;;2.35;;
52642;SDS011;38531;53.296;6.614;2023-01-28T09:56:56;4.50;;;2.70;;
52642;SDS011;38531;53.296;6.614;2023-01-28T09:59:30;6.60;;;5.90;;
52642;SDS011;38531;53.296;6.614;2023-01-28T10:02:00;158.20;;;137.18;;
52642;SDS011;38531;53.296;6.614;2023-01-28T10:07:54;130.73;;;67.88;;
52642;SDS011;38531;53.296;6.614;2023-01-28T10:10:34;713.08;;;422.58;;
52642;SDS011;38531;53.296;6.614;2023-01-28T10:13:27;217.85;;;119.47;;
52642;SDS011;38531;53.296;6.614;2023-01-28T10:19:04;3.10;;;1.60;;
52642;SDS011;38531;53.296;6.614;2023-01-28T10:21:45;171.82;;;151.60;;
52642;SDS011;38531;53.296;6.614;2023-01-28T10:26:43;467.23;;;296.05;;
52642;SDS011;38531;53.296;6.614;2023-01-28T10:32:13;622.15;;;310.63;;
52642;SDS011;38531;53.296;6.614;2023-01-28T10:34:47;507.55;;;302.13;;
52642;SDS011;38531;53.296;6.614;2023-01-28T10:37:13;657.73;;;322.27;;
52642;SDS011;38531;53.296;6.614;2023-01-28T10:39:40;4.15;;;2.30;;
52642;SDS011;38531;53.296;6.614;2023-01-28T10:42:12;175.25;;;156.10;;
52642;SDS011;38531;53.296;6.614;2023-01-28T10:45:02;3.67;;;2.20;;
52642;SDS011;38531;53.296;6.614;2023-01-28T10:47:52;379.90;;;250.32;;
52642;SDS011;38531;53.296;6.614;2023-01-28T10:50:32;3.75;;;2.22;;
52642;SDS011;38531;53.296;6.614;2023-01-28T10:53:02;297.10;;;218.60;;
52642;SDS011;38531;53.296;6.614;2023-01-28T10:58:26;279.05;;;193.80;;
52642;SDS011;38531;53.296;6.614;2023-01-28T11:00:53;3.53;;;2.15;;
52642;SDS011;38531;53.296;6.614;2023-01-28T11:03:29;139.10;;;125.25;;
52642;SDS011;38531;53.296;6.614;2023-01-28T11:05:55;4.28;;;2.00;;
52642;SDS011;38531;53.296;6.614;2023-01-28T11:08:24;3.53;;;2.03;;
52642;SDS011;38531;53.296;6.614;2023-01-28T11:10:51;5.35;;;2.25;;
52642;SDS011;38531;53.296;6.614;2023-01-28T11:13:26;3.67;;;1.80;;
52642;SDS011;38531;53.296;6.614;2023-01-28T11:18:31;3.22;;;2.20;;
52642;SDS011;38531;53.296;6.614;2023-01-28T11:21:01;60.95;;;42.90;;
52642;SDS011;38531;53.296;6.614;2023-01-28T11:23:33;20.38;;;18.33;;
52642;SDS011;38531;53.296;6.614;2023-01-28T11:26:06;126.63;;;117.28;;
52642;SDS011;38531;53.296;6.614;2023-01-28T11:28:39;65.60;;;59.28;;
52642;SDS011;38531;53.296;6.614;2023-01-28T11:31:06;3.22;;;2.00;;
52642;SDS011;38531;53.296;6.614;2023-01-28T11:33:37;10.35;;;9.40;;
52642;SDS011;38531;53.296;6.614;2023-01-28T11:36:20;8.32;;;6.25;;
52642;SDS011;38531;53.296;6.614;2023-01-28T11:41:15;32.20;;;30.20;;
52642;SDS011;38531;53.296;6.614;2023-01-28T11:43:40;32.20;;;30.00;;
52642;SDS011;38531;53.296;6.614;2023-01-28T11:54:23;108.22;;;98.80;;
52642;SDS011;38531;53.296;6.614;2023-01-28T11:57:03;166.73;;;155.85;;
52642;SDS011;38531;53.296;6.614;2023-01-28T12:02:38;16.92;;;15.80;;
52642;SDS011;38531;53.296;6.614;2023-01-28T12:05:24;25.45;;;23.63;;
52642;SDS011;38531;53.296;6.614;2023-01-28T12:08:08;100.07;;;91.50;;
52642;SDS011;38531;53.296;6.614;2023-01-28T12:13:36;63.20;;;59.08;;
52642;SDS011;38531;53.296;6.614;2023-01-28T12:16:45;55.65;;;51.60;;
52642;SDS011;38531;53.296;6.614;2023-01-28T12:19:24;102.65;;;86.57;;
52642;SDS011;38531;53.296;6.614;2023-01-28T12:24:54;3.42;;;2.10;;
52642;SDS011;38531;53.296;6.614;2023-01-28T12:38:47;6.60;;;5.20;;
52642;SDS011;38531;53.296;6.614;2023-01-28T12:41:40;18.10;;;16.90;;
52642;SDS011;38531;53.296;6.614;2023-01-28T12:47:15;6.03;;;5.22;;
52642;SDS011;38531;53.296;6.614;2023-01-28T12:49:50;7.15;;;2.25;;
52642;SDS011;38531;53.296;6.614;2023-01-28T12:57:26;19.23;;;17.80;;
52642;SDS011;38531;53.296;6.614;2023-01-28T13:00:14;5.20;;;2.55;;
52642;SDS011;38531;53.296;6.614;2023-01-28T13:02:44;5.22;;;2.83;;
52642;SDS011;38531;53.296;6.614;2023-01-28T13:05:16;6.45;;;2.60;;
52642;SDS011;38531;53.296;6.614;2023-01-28T13:07:53;6.03;;;2.70;;
52642;SDS011;38531;53.296;6.614;2023-01-28T13:10:35;25.75;;;23.58;;
52642;SDS011;38531;53.296;6.614;2023-01-28T13:13:16;13.25;;;11.15;;
52642;SDS011;38531;53.296;6.614;2023-01-28T13:15:42;45.35;;;40.97;;
52642;SDS011;38531;53.296;6.614;2023-01-28T13:21:00;7.15;;;2.92;;
52642;SDS011;38531;53.296;6.614;2023-01-28T13:28:44;4.82;;;2.15;;
52642;SDS011;38531;53.296;6.614;2023-01-28T13:31:12;3.47;;;1.65;;
52642;SDS011;38531;53.296;6.614;2023-01-28T13:39:05;3.25;;;1.52;;
52642;SDS011;38531;53.296;6.614;2023-01-28T13:41:48;3.05;;;1.38;;
52642;SDS011;38531;53.296;6.614;2023-01-28T13:44:32;4.53;;;1.67;;
52642;SDS011;38531;53.296;6.614;2023-01-28T13:54:34;3.30;;;1.20;;
52642;SDS011;38531;53.296;6.614;2023-01-28T14:00:12;3.97;;;1.88;;
52642;SDS011;38531;53.296;6.614;2023-01-28T14:11:17;3.22;;;1.63;;
52642;SDS011;38531;53.296;6.614;2023-01-28T14:16:40;3.90;;;1.83;;
52642;SDS011;38531;53.296;6.614;2023-01-28T14:19:23;5.97;;;2.30;;
52642;SDS011;38531;53.296;6.614;2023-01-28T14:21:54;4.18;;;2.95;;
52642;SDS011;38531;53.296;6.614;2023-01-28T14:24:20;2.88;;;1.65;;
52642;SDS011;38531;53.296;6.614;2023-01-28T14:32:02;8.70;;;4.70;;
52642;SDS011;38531;53.296;6.614;2023-01-28T14:34:31;4.63;;;2.10;;
52642;SDS011;38531;53.296;6.614;2023-01-28T14:37:11;2.90;;;1.40;;
52642;SDS011;38531;53.296;6.614;2023-01-28T14:39:54;3.20;;;1.33;;
52642;SDS011;38531;53.296;6.614;2023-01-28T14:42:31;108.72;;;99.65;;
52642;SDS011;38531;53.296;6.614;2023-01-28T14:47:30;12.00;;;11.00;;
52642;SDS011;38531;53.296;6.614;2023-01-28T14:55:49;52.10;;;49.45;;
52642;SDS011;38531;53.296;6.614;2023-01-28T14:58:24;11.70;;;10.85;;
52642;SDS011;38531;53.296;6.614;2023-01-28T15:00:57;10.80;;;9.82;;
52642;SDS011;38531;53.296;6.614;2023-01-28T15:03:24;5.65;;;2.75;;
52642;SDS011;38531;53.296;6.614;2023-01-28T15:06:00;43.50;;;39.78;;
52642;SDS011;38531;53.296;6.614;2023-01-28T15:08:40;6.75;;;5.38;;
52642;SDS011;38531;53.296;6.614;2023-01-28T15:11:06;4.68;;;1.77;;
52642;SDS011;38531;53.296;6.614;2023-01-28T15:13:41;22.08;;;19.90;;
52642;SDS011;38531;53.296;6.614;2023-01-28T15:16:19;23.65;;;20.77;;
52642;SDS011;38531;53.296;6.614;2023-01-28T15:18:47;6.13;;;4.10;;
52642;SDS011;38531;53.296;6.614;2023-01-28T15:21:22;6.15;;;4.28;;
52642;SDS011;38531;53.296;6.614;2023-01-28T15:23:50;5.22;;;1.38;;
52642;SDS011;38531;53.296;6.614;2023-01-28T15:26:25;32.33;;;29.45;;
52642;SDS011;38531;53.296;6.614;2023-01-28T15:28:58;3.83;;;1.52;;
52642;SDS011;38531;53.296;6.614;2023-01-28T15:31:26;4.18;;;2.10;;
52642;SDS011;38531;53.296;6.614;2023-01-28T15:36:34;4.55;;;2.13;;
52642;SDS011;38531;53.296;6.614;2023-01-28T15:39:00;28.02;;;26.15;;
52642;SDS011;38531;53.296;6.614;2023-01-28T15:41:28;3.60;;;1.95;;
52642;SDS011;38531;53.296;6.614;2023-01-28T15:43:57;3.83;;;1.95;;
52642;SDS011;38531;53.296;6.614;2023-01-28T15:46:23;3.83;;;1.92;;
52642;SDS011;38531;53.296;6.614;2023-01-28T15:49:12;6.22;;;3.47;;
52642;SDS011;38531;53.296;6.614;2023-01-28T15:51:39;4.40;;;1.83;;
52642;SDS011;38531;53.296;6.614;2023-01-28T15:54:05;7.82;;;6.70;;
52642;SDS011;38531;53.296;6.614;2023-01-28T15:56:33;10.38;;;9.00;;
52642;SDS011;38531;53.296;6.614;2023-01-28T15:59:14;6.38;;;2.50;;
52642;SDS011;38531;53.296;6.614;2023-01-28T16:01:43;4.03;;;2.70;;
52642;SDS011;38531;53.296;6.614;2023-01-28T16:04:22;6.28;;;2.65;;
52642;SDS011;38531;53.296;6.614;2023-01-28T16:06:49;5.30;;;3.15;;
52642;SDS011;38531;53.296;6.614;2023-01-28T16:09:21;5.13;;;2.05;;
52642;SDS011;38531;53.296;6.614;2023-01-28T16:11:50;7.88;;;5.05;;
52642;SDS011;38531;53.296;6.614;2023-01-28T16:14:19;5.65;;;1.98;;
52642;SDS011;38531;53.296;6.614;2023-01-28T16:16:48;4.10;;;1.83;;
52642;SDS011;38531;53.296;6.614;2023-01-28T16:19:20;3.38;;;1.90;;
52642;SDS011;38531;53.296;6.614;2023-01-28T16:22:05;6.57;;;2.40;;
52642;SDS011;38531;53.296;6.614;2023-01-28T16:24:32;4.50;;;1.83;;
52642;SDS011;38531;53.296;6.614;2023-01-28T16:27:03;12.15;;;9.77;;
52642;SDS011;38531;53.296;6.614;2023-01-28T16:29:34;5.38;;;2.60;;
52642;SDS011;38531;53.296;6.614;2023-01-28T16:32:00;56.85;;;51.42;;
52642;SDS011;38531;53.296;6.614;2023-01-28T16:34:27;20.55;;;18.95;;
52642;SDS011;38531;53.296;6.614;2023-01-28T16:36:59;48.17;;;44.97;;
52642;SDS011;38531;53.296;6.614;2023-01-28T16:39:25;7.32;;;2.50;;
52642;SDS011;38531;53.296;6.614;2023-01-28T16:41:51;286.92;;;259.27;;
52642;SDS011;38531;53.296;6.614;2023-01-28T16:44:17;6.68;;;5.47;;
52642;SDS011;38531;53.296;6.614;2023-01-28T16:46:43;39.20;;;36.78;;
52642;SDS011;38531;53.296;6.614;2023-01-28T16:49:09;4.07;;;2.42;;
52642;SDS011;38531;53.296;6.614;2023-01-28T16:51:36;6.13;;;4.35;;
52642;SDS011;38531;53.296;6.614;2023-01-28T16:54:04;3.88;;;2.58;;